Eagle River, Canada
Current Conditions -  °F | °C
As of 11:00 AM on Friday 24 Oct 2014 (Local Time) from CYHD Reporting Station
Few Clouds Few Clouds  
Wind Chill: 55°   Ceiling: Unl
Heat Index: 55°   Visibility: 9mi
Dew Point: 43°   Wind: 13mph
Humidity: 63%   Direction: 210°SSW
Pressure: 29.68"   Gusts: NA
Location:  49.78°N, 93.18°W
Report Text: CYHD 241600Z AUTO 21011KT 9SM FEW180 13/06 A2968 RMK SLP061 DENSITY ALT 1600FT
Loading
Personal Weather Stations






























Interactive Weather Map
Tropical Storm Tracking
New forecast layout! Learn more

10-Day Weather Forecast

Advertisements
Track Severe Weather on mobile